Nearby METAR Reports

 

KCFV - Coffeyville, Kansas, USA
Distance from station: ENE 93mi, 150km
Updated: Wed, 12-07-2022 10:22am CST
Overcast
Overcast
 Wind from NNE
Wind: NNE 5 mph , 7 km/h
Temperature: 46°F , 8°C
Wind Chill: 44°F , 7°C
Dew Point: 43°F , 6°C
Humidity: 87%
Barometer: 1024 hPa
Clouds: Overcast
Visibility: 8 miles , 13 km
Cloud details: Few Clouds 800 ft
Overcast 1900 ft
2022/12/07 16:22 KCFV 071622Z AUTO 02004KT 8SM FEW008 OVC019 08/06 A3024 RMK AO2 T00830061
KIDP - Independence, Kansas, USA
Distance from station: NE 86mi, 138km
Updated: Wed, 12-07-2022 10:35am CST
Overcast
Overcast
 Wind from NNE
Wind: NNE 7 mph , 11 km/h
Temperature: 45°F , 7°C
Wind Chill: 41°F , 5°C
Dew Point: 43°F , 6°C
Humidity: 93%
Barometer: 1024.7 hPa
Clouds: Overcast
Visibility: 10 miles , 16 km
Cloud details: Partly cloudy 700 ft
Overcast 1500 ft
2022/12/07 16:35 KIDP 071635Z AUTO 02006KT 10SM SCT007 OVC015 07/06 A3026 RMK AO2 T00750058
KIAB - Mcconnell Afb, Kansas, USA
Distance from station: N 84mi, 135km
Updated: Wed, 12-07-2022 10:10am CST
Overcast
Overcast
 Wind from NNW
Wind: NNW 3 mph , 6 km/h
Temperature: 43°F , 6°C
Dew Point: 39°F , 4°C
Humidity: 87%
Barometer: 1023.4 hPa
Clouds: Overcast
Visibility: 10 miles , 16 km
Cloud details: Overcast 600 ft
2022/12/07 16:10 KIAB 071610Z AUTO 34003KT 10SM OVC006 06/04 A3022 RMK AO2 CIG 005 RWY01 SLP245
 
KICT - Wichita, Kansas, USA
Distance from station: NNW 88mi, 142km
Updated: Wed, 12-07-2022 10:27am CST
Mist, Overcast
Mist, Overcast
 Wind from N
Wind: N 6 mph , 9 km/h
Temperature: 43°F , 6°C
Wind Chill: 39°F , 4°C
Dew Point: 39°F , 4°C
Humidity: 87%
Barometer: 1024.4 hPa
Summary: Mist
Clouds: Overcast
Visibility: 3 miles , 5 km
Cloud details: Overcast 1000 ft
2022/12/07 16:27 KICT 071627Z 36005KT 3SM BR OVC010 06/04 A3025 RMK AO2 TWR VIS 4 T00560039
KAAO - Wichita/Jabara, Kansas, USA
Distance from station: N 93mi, 149km
Updated: Wed, 12-07-2022 10:03am CST
Mist, Overcast
Mist, Overcast
 Wind from NNW
Wind: NNW 6 mph , 9 km/h
Temperature: 41°F , 5°C
Wind Chill: 37°F , 3°C
Dew Point: 39°F , 4°C
Humidity: 93%
Barometer: 1024 hPa
Summary: Mist
Clouds: Overcast
Visibility: 3 miles , 5 km
Cloud details: Overcast 500 ft
2022/12/07 16:03 KAAO 071603Z AUTO 34005KT 3SM BR OVC005 05/04 A3024 RMK AO2 CIG 002V009 T00500039
KWLD - Winfield/Arkansa, Kansas, USA
Distance from station: N 52mi, 84km
Updated: Wed, 12-07-2022 9:54am CST
Overcast
Overcast
 Wind from NNE
Wind: NNE 3 mph , 6 km/h
Temperature: 45°F , 7°C
Dew Point: 41°F , 5°C
Humidity: 87%
Barometer: 1024.4 hPa
Clouds: Overcast
Visibility: 7 miles , 11 km
Cloud details: Overcast 800 ft
2022/12/07 15:54 KWLD 071554Z AUTO 02003KT 7SM OVC008 07/05 A3025 RMK AO2 SLP248 T00720050
 
KAVK - Alva, Oklahoma, USA
Distance from station: WNW 94mi, 152km
Updated: Wed, 12-07-2022 10:35am CST
Mist, Mostly cloudy
Mist, Mostly cloudy
 Wind from calm
Wind: Calm
Temperature: 37°F , 3°C
Dew Point: 36°F , 2°C
Humidity: 93%
Barometer: 1025.1 hPa
Summary: Mist
Clouds: Mostly cloudy
Visibility: 5 miles , 8 km
Cloud details: Mostly cloudy 600 ft
2022/12/07 16:35 KAVK 071635Z AUTO 00000KT 5SM BR BKN006 03/02 A3027 RMK AO2 PWINO
KBVO - Bartlesville, Oklahoma, USA
Distance from station: ENE 61mi, 98km
Updated: Wed, 12-07-2022 9:53am CST
Overcast
Overcast
 Wind from NE
Wind: NE 5 mph , 7 km/h
Temperature: 46°F , 8°C
Wind Chill: 44°F , 7°C
Dew Point: 45°F , 7°C
Humidity: 93%
Barometer: 1024.4 hPa
Clouds: Overcast
Visibility: 7 miles , 11 km
Cloud details: Overcast 1500 ft
2022/12/07 15:53 KBVO 071553Z AUTO 04004KT 7SM OVC015 08/07 A3025 RMK AO2 SLP241 T00830067
KBKN - Blackwell, Oklahoma, USA
Distance from station: NW 29mi, 47km
Updated: Thu, 09-08-2022 6:15pm CDT
NOT Current
Clear
Clear
 Wind from ESE
Wind: ESE 12 mph , 19 km/h
Temperature: 90°F , 32°C
Dew Point: 54°F , 12°C
Humidity: 29%
Barometer: 1009.5 hPa
Clouds: Clear
2022/09/08 23:15 KBKN 082315Z AUTO 12010KT CLR 32/12 A2981 RMK AO2
 
KGCM - Claremore, Oklahoma, USA
Distance from station: E 86mi, 138km
Updated: Wed, 12-07-2022 10:35am CST
Overcast
Overcast
 Wind from calm
Wind: Calm
Temperature: 48°F , 9°C
Dew Point: 46°F , 8°C
Humidity: 94%
Barometer: 1024.4 hPa
Clouds: Overcast
Visibility: 8 miles , 13 km
Cloud details: Overcast 600 ft
2022/12/07 16:35 KGCM 071635Z AUTO 00000KT 8SM OVC006 09/08 A3025 RMK AO2 LTG DSNT S
KCQB - Chandler, Oklahoma, USA
Distance from station: SSE 50mi, 80km
Updated: Wed, 12-07-2022 10:35am CST
Mist, Overcast
Mist, Overcast
 Wind from NNW
Wind: NNW 7 mph , 11 km/h
Temperature: 45°F , 7°C
Wind Chill: 41°F , 5°C
Dew Point: 45°F , 7°C
Humidity: 100%
Barometer: 1024 hPa
Summary: Mist
Clouds: Overcast
Visibility: 1 1/2 miles , 2.4 km
Cloud details: Overcast 500 ft
2022/12/07 16:35 KCQB 071635Z AUTO 34006KT 1 1/2SM BR OVC005 07/07 A3024 RMK AO2 T00750068
KCUH - Cushing, Oklahoma, USA
Distance from station: SSE 35mi, 57km
Updated: Wed, 12-07-2022 10:35am CST
Mist, Overcast
Mist, Overcast
 Wind from calm
Wind: Calm
Temperature: 46°F , 8°C
Dew Point: 45°F , 7°C
Humidity: 93%
Barometer: 1024 hPa
Summary: Mist
Clouds: Overcast
Visibility: 3 miles , 5 km
Cloud details: Overcast 600 ft
2022/12/07 16:35 KCUH 071635Z AUTO 00000KT 3SM BR OVC006 08/07 A3024 RMK AO2 T00750067
 
KRQO - El Reno Muni, Oklahoma, USA
Distance from station: SW 85mi, 137km
Updated: Tue, 11-29-2022 10:55am CST
NOT Current
Clear
Clear
 Wind from W
Wind: W 18 mph , 30 km/h
Temperature: 61°F , 16°C
Dew Point: 39°F , 4°C
Humidity: 45%
Barometer: 1005.4 hPa
Clouds: Clear
Visibility: 10 miles , 16 km
2022/11/29 16:55 KRQO 291655Z AUTO 27016KT 10SM CLR 16/04 A2969 RMK AO2 T01590042
KEND - Enid/Vance Afb, Oklahoma, USA
Distance from station: W 50mi, 81km
Updated: Wed, 12-07-2022 10:35am CST
Mist, Overcast
Mist, Overcast
 Wind from ENE
Wind: ENE 6 mph , 9 km/h
Temperature: 43°F , 6°C
Wind Chill: 39°F , 4°C
Dew Point: 43°F , 6°C
Humidity: 100%
Barometer: 1022.4 hPa
Summary: Mist
Clouds: Overcast
Visibility: 3 miles , 5 km
Cloud details: Overcast 400 ft
2022/12/07 16:35 KEND 071635Z 06005KT 3SM BR OVC004 06/06 A3019 RMK PRESFR SLP233
KWDG - Enid/Woodring, Oklahoma, USA
Distance from station: W 42mi, 67km
Updated: Wed, 12-07-2022 9:45am CST
Mist, Overcast
Mist, Overcast
 Wind from calm
Wind: Calm
Temperature: 41°F , 5°C
Dew Point: 41°F , 5°C
Humidity: 100%
Barometer: 1023.7 hPa
Summary: Mist
Clouds: Overcast
Visibility: 1 1/2 miles , 2.4 km
Cloud details: Overcast 300 ft
2022/12/07 15:45 KWDG 071545Z 00000KT 1 1/2SM BR OVC003 05/05 A3023
 
KGOK - Guthrie, Oklahoma, USA
Distance from station: SSW 44mi, 71km
Updated: Wed, 12-07-2022 9:53am CST
Mist, Overcast
Mist, Overcast
 Wind from E
Wind: E 5 mph , 7 km/h
Temperature: 45°F , 7°C
Wind Chill: 42°F , 6°C
Dew Point: 41°F , 5°C
Humidity: 87%
Barometer: 1023.4 hPa
Summary: Mist
Clouds: Overcast
Visibility: 6 miles , 10 km
Cloud details: Overcast 700 ft
2022/12/07 15:53 KGOK 071553Z AUTO 08004KT 6SM BR OVC007 07/05 A3022 RMK AO2 SLP239 T00720050
KOUN - Norman/Westheime, Oklahoma, USA
Distance from station: SSW 84mi, 136km
Updated: Wed, 12-07-2022 9:46am CST
Overcast
Overcast
 Wind from NNE
Wind: NNE 3 mph , 6 km/h
Temperature: 46°F , 8°C
Dew Point: 43°F , 6°C
Humidity: 87%
Barometer: 1022.7 hPa
Clouds: Overcast
Visibility: 7 miles , 11 km
Cloud details: Overcast 900 ft
2022/12/07 15:46 KOUN 071546Z 02003KT 7SM OVC009 08/06 A3020
KOKC - Oklahoma City, Oklahoma, USA
Distance from station: SSW 78mi, 126km
Updated: Wed, 12-07-2022 10:31am CST
Overcast
Overcast
 Wind from N
Wind: N 6 mph , 9 km/h
Temperature: 46°F , 8°C
Wind Chill: 43°F , 6°C
Dew Point: 43°F , 6°C
Humidity: 87%
Barometer: 1023.4 hPa
Clouds: Overcast
Visibility: 10 miles , 16 km
Cloud details: Overcast 1400 ft
2022/12/07 16:31 KOKC 071631Z 36005KT 10SM OVC014 08/06 A3022 RMK AO2 T00830056
 
KPWA - Okla City/Wiley, Oklahoma, USA
Distance from station: SSW 70mi, 113km
Updated: Wed, 12-07-2022 9:53am CST
Overcast
Overcast
 Wind from NNW
Wind: NNW 3 mph , 6 km/h
Temperature: 46°F , 8°C
Dew Point: 41°F , 5°C
Humidity: 82%
Barometer: 1023.4 hPa
Clouds: Overcast
Visibility: 7 miles , 11 km
Cloud details: Partly cloudy 700 ft
Overcast 1900 ft
2022/12/07 15:53 KPWA 071553Z 34003KT 7SM SCT007 OVC019 08/05 A3022 RMK AO2 SLP237 T00780050
KRCE - Okla City/Page, Oklahoma, USA
Distance from station: SW 78mi, 126km
Updated: Wed, 12-07-2022 10:35am CST
Overcast
Overcast
 Wind from calm
Wind: Calm
Temperature: 46°F , 8°C
Dew Point: 43°F , 6°C
Humidity: 87%
Barometer: 1023.4 hPa
Clouds: Overcast
Visibility: 7 miles , 11 km
Cloud details: Overcast 1900 ft
2022/12/07 16:35 KRCE 071635Z AUTO 00000KT 7SM OVC019 08/06 A3022 RMK AO2
KOKM - Okmulgee, Oklahoma, USA
Distance from station: SE 79mi, 127km
Updated: Wed, 12-07-2022 10:35am CST
Mist, Overcast
Mist, Overcast
 Wind from NNE
Wind: NNE 5 mph , 7 km/h
Temperature: 48°F , 9°C
Wind Chill: 46°F , 8°C
Dew Point: 45°F , 7°C
Humidity: 87%
Barometer: 1023.7 hPa
Summary: Mist
Clouds: Overcast
Visibility: 5 miles , 8 km
Cloud details: Overcast 700 ft
2022/12/07 16:35 KOKM 071635Z AUTO 03004KT 5SM BR OVC007 09/07 A3023 RMK AO2 T00850070
 
KPNC - Ponca City, Oklahoma, USA
Distance from station: N 22mi, 36km
Updated: Wed, 12-07-2022 9:53am CST
Overcast
Overcast
 Wind from NNE
Wind: NNE 5 mph , 7 km/h
Temperature: 46°F , 8°C
Wind Chill: 44°F , 7°C
Dew Point: 43°F , 6°C
Humidity: 87%
Barometer: 1024 hPa
Clouds: Overcast
Visibility: 9 miles , 14 km
Cloud details: Overcast 800 ft
2022/12/07 15:53 KPNC 071553Z AUTO 03004KT 9SM OVC008 08/06 A3024 RMK AO2 SLP240 T00780056
KSNL - Shawnee, Oklahoma, USA
Distance from station: S 74mi, 119km
Updated: Wed, 12-07-2022 10:35am CST
Mist, Overcast
Mist, Overcast
 Wind from calm
Wind: Calm
Temperature: 46°F , 8°C
Dew Point: 45°F , 7°C
Humidity: 93%
Barometer: 1023 hPa
Summary: Mist
Clouds: Overcast
Visibility: 5 miles , 8 km
Cloud details: Overcast 600 ft
2022/12/07 16:35 KSNL 071635Z AUTO 00000KT 5SM BR OVC006 08/07 A3021 RMK AO2 T00750065
KSWO - Stillwater, Oklahoma, USA
Distance from station: S 17mi, 28km
Updated: Wed, 12-07-2022 9:53am CST
Overcast
Overcast
 Wind from ESE
Wind: ESE 5 mph , 7 km/h
Temperature: 46°F , 8°C
Wind Chill: 44°F , 7°C
Dew Point: 43°F , 6°C
Humidity: 87%
Barometer: 1023.7 hPa
Clouds: Overcast
Visibility: 8 miles , 13 km
Cloud details: Overcast 500 ft
2022/12/07 15:53 KSWO 071553Z 12004KT 8SM OVC005 08/06 A3023 RMK AO2 SLP237 T00830061
 
KTIK - Tinker Afb, Oklahoma, USA
Distance from station: SSW 72mi, 115km
Updated: Wed, 12-07-2022 10:12am CST
Overcast
Overcast
 Wind from calm
Wind: Calm
Temperature: 46°F , 8°C
Dew Point: 46°F , 8°C
Humidity: 100%
Barometer: 1022 hPa
Clouds: Overcast
Visibility: 8 miles , 13 km
Cloud details: Overcast 600 ft
2022/12/07 16:12 KTIK 071612Z AUTO 00000KT 8SM OVC006 08/08 A3018 RMK AO2 SLP231 $
KTUL - Tulsa, Oklahoma, USA
Distance from station: ESE 65mi, 105km
Updated: Wed, 12-07-2022 9:53am CST
Overcast
Overcast
 Wind from calm
Wind: Calm
Temperature: 48°F , 9°C
Dew Point: 45°F , 7°C
Humidity: 87%
Barometer: 1024 hPa
Clouds: Overcast
Visibility: 2 miles , 3 km
Cloud details: Overcast 600 ft
2022/12/07 15:53 KTUL 071553Z 00000KT 2SM OVC006 09/07 A3024 RMK AO2 SFC VIS 7 SLP242 T00890072